Creek Data

    Home     View Charts     View Raw Data     Messages

ID Distance Battery Voltage Battery Current Internal Temp Internal Humidity External Temp Solar Input rssi snr Time Stamp Record
68168 14.7 3.66 -5 50 52 49 0 -74 8 03/06/2026 11:15 PM 51031
68167 14.6 3.72 -5 51 52 54 0 -73 8 03/06/2026 11:00 PM 51030
68166 14.6 3.71 -5 51 52 53 0 -74 8 03/06/2026 10:45 PM 51029
68165 14.6 3.71 -5 50 53 53 0.1 -74 9 03/06/2026 10:30 PM 51028
68164 14.6 3.47 -5 51 53 52 0 -74 8 03/06/2026 10:15 PM 51027
68163 14.7 3.48 -5 51 53 52 0 -68 9 03/06/2026 10:00 PM 51026
68162 14.6 3.54 -5 53 52 55 0 -67 9 03/06/2026 09:45 PM 51025
68161 14.6 3.53 -5 52 53 55 0 -67 9 03/06/2026 09:30 PM 51024
68160 14.7 3.72 -5 52 53 54 0 -67 9 03/06/2026 09:15 PM 51023
68159 14.7 3.72 -5 51 54 53 0.1 -68 8 03/06/2026 09:00 PM 51022
68158 14.7 3.73 -5 52 54 53 0 -67 9 03/06/2026 08:45 PM 51021
68157 14.7 3.72 -5 53 54 54 0 -67 8 03/06/2026 08:30 PM 51020
68156 14.7 3.54 -5 54 54 54 0 -68 9 03/06/2026 08:15 PM 51019
68155 14.7 3.55 -5 55 54 56 0 -67 9 03/06/2026 08:00 PM 51018
68154 14.6 3.56 -5 56 54 58 0 -68 8 03/06/2026 07:45 PM 51017
68153 14.7 3.55 -5 56 55 57 0 -66 8 03/06/2026 07:30 PM 51016
68152 14.7 3.53 -5 57 55 59 0 -66 9 03/06/2026 07:15 PM 51015
68151 14.8 3.73 -5 58 56 58 0 -66 9 03/06/2026 07:00 PM 51014
68150 14.7 3.74 -5 60 56 60 0.1 -68 9 03/06/2026 06:45 PM 51013
68149 14.7 3.74 -5 61 57 61 0 -67 9 03/06/2026 06:30 PM 51012
68148 14.7 3.51 -5 62 58 62 0.9 -68 8 03/06/2026 06:15 PM 51011
68147 14.7 3.48 -5 64 58 63 4.6 -68 9 03/06/2026 06:00 PM 51010
68146 14.8 3.84 8 68 56 65 4.5 -66 8 03/06/2026 05:45 PM 51009
68145 14.7 3.79 5 70 56 66 4.6 -66 7 03/06/2026 05:30 PM 51008
68144 14.7 3.73 0 73 54 67 5.1 -66 8 03/06/2026 05:15 PM 51007